createdAt,value
2018-09-03T00:00:07.175Z,102274.64
2018-09-03T00:03:11.473Z,102276.39
2018-09-03T00:06:15.773Z,102267.42
2018-09-03T00:09:20.065Z,102269.79
2018-09-03T00:12:24.333Z,102262.06
2018-09-03T00:15:35.446Z,102267.27
2018-09-03T00:18:39.685Z,102262.83
2018-09-03T00:21:43.951Z,102260.64
2018-09-03T00:24:48.213Z,102256.98
2018-09-03T00:27:52.506Z,102250.40
2018-09-03T00:31:02.066Z,102253.30
2018-09-03T00:34:11.714Z,102250.84
2018-09-03T00:37:21.325Z,102244.58
2018-09-03T00:40:30.835Z,102241.36
2018-09-03T00:43:40.349Z,102244.48
2018-09-03T00:46:49.881Z,102233.91
2018-09-03T00:49:54.129Z,102241.84
2018-09-03T00:52:58.373Z,102240.13
2018-09-03T00:56:02.619Z,102239.56
2018-09-03T00:59:06.962Z,102241.08
2018-09-03T01:02:11.219Z,102233.39
2018-09-03T01:05:15.465Z,102226.95
2018-09-03T01:08:19.714Z,102222.34
2018-09-03T01:11:26.158Z,102229.80
2018-09-03T01:14:30.394Z,102218.22
2018-09-03T01:17:34.692Z,102223.88
2018-09-03T01:20:38.894Z,102217.80
2018-09-03T01:23:43.146Z,102215.39
2018-09-03T01:26:47.381Z,102220.97
2018-09-03T01:29:51.708Z,102215.95
2018-09-03T01:32:55.955Z,102206.80
2018-09-03T01:36:00.223Z,102207.09
2018-09-03T01:39:05.949Z,102205.77
2018-09-03T01:42:10.177Z,102196.75
2018-09-03T01:45:14.414Z,102198.26
2018-09-03T01:48:18.734Z,102184.50
2018-09-03T01:51:22.949Z,102195.27
2018-09-03T01:54:27.201Z,102192.44
2018-09-03T01:57:31.428Z,102182.28
2018-09-03T02:00:35.939Z,102187.78
2018-09-03T02:03:40.173Z,102176.02
2018-09-03T02:06:44.404Z,102165.78
2018-09-03T02:09:48.676Z,102167.81
2018-09-03T02:12:52.900Z,102170.20
2018-09-03T02:15:57.181Z,102169.99
2018-09-03T02:19:01.434Z,102157.62
2018-09-03T02:22:05.957Z,102158.19
2018-09-03T02:25:10.229Z,102157.66
2018-09-03T02:28:14.469Z,102158.75
2018-09-03T02:31:18.807Z,102158.14
2018-09-03T02:34:23.053Z,102147.75
2018-09-03T02:37:27.314Z,102154.02
2018-09-03T02:40:31.583Z,102148.28
2018-09-03T02:43:35.823Z,102140.50
2018-09-03T02:46:40.043Z,102142.70
2018-09-03T02:49:44.297Z,102143.97
2018-09-03T02:52:48.576Z,102145.39
2018-09-03T02:55:52.787Z,102146.25
2018-09-03T02:58:57.065Z,102141.32
2018-09-03T03:02:01.321Z,102134.11
2018-09-03T03:05:05.832Z,102135.05
2018-09-03T03:08:10.065Z,102129.14
2018-09-03T03:11:14.337Z,102130.03
2018-09-03T03:14:18.653Z,102125.63
2018-09-03T03:17:22.918Z,102129.55
2018-09-03T03:20:27.176Z,102129.27
2018-09-03T03:23:31.433Z,102129.75
2018-09-03T03:26:35.698Z,102133.62
2018-09-03T03:29:39.971Z,102132.43
2018-09-03T03:32:44.204Z,102125.31
2018-09-03T03:35:48.457Z,102121.80
2018-09-03T03:38:52.699Z,102120.82
2018-09-03T03:41:56.977Z,102124.13
2018-09-03T03:45:01.237Z,102119.05
2018-09-03T03:48:05.525Z,102115.62
2018-09-03T03:51:09.749Z,102115.81
2018-09-03T03:54:13.963Z,102116.30
2018-09-03T03:57:18.210Z,102117.59
2018-09-03T04:00:22.408Z,102115.41
2018-09-03T04:03:26.647Z,102115.05
2018-09-03T04:06:31.065Z,102104.45
2018-09-03T04:09:35.317Z,102111.86
2018-09-03T04:12:43.261Z,102108.98
2018-09-03T04:15:47.489Z,102114.61
2018-09-03T04:18:51.710Z,102109.95
2018-09-03T04:21:55.941Z,102108.26
2018-09-03T04:25:00.157Z,102103.64
2018-09-03T04:28:04.406Z,102105.02
2018-09-03T04:31:08.608Z,102100.08
2018-09-03T04:34:12.833Z,102096.05
2018-09-03T04:37:17.035Z,102097.05
2018-09-03T04:40:21.284Z,102095.88
2018-09-03T04:43:25.545Z,102092.23
2018-09-03T04:46:29.866Z,102100.17
2018-09-03T04:49:35.264Z,102099.64
2018-09-03T04:52:39.501Z,102097.98
2018-09-03T04:55:43.734Z,102097.38
2018-09-03T04:58:48.019Z,102097.98
2018-09-03T05:01:52.285Z,102105.09
2018-09-03T05:04:56.505Z,102104.49
2018-09-03T05:08:00.762Z,102097.86
2018-09-03T05:11:05.098Z,102108.34
2018-09-03T05:14:09.368Z,102109.71
2018-09-03T05:17:13.605Z,102109.11
2018-09-03T05:20:17.871Z,102106.64
2018-09-03T05:23:22.167Z,102103.40
2018-09-03T05:26:26.401Z,102107.41
2018-09-03T05:29:30.633Z,102108.22
2018-09-03T05:32:34.885Z,102107.93
2018-09-03T05:35:39.117Z,102101.66
2018-09-03T05:38:43.352Z,102100.77
2018-09-03T05:41:47.632Z,102095.83
2018-09-03T05:44:51.860Z,102094.70
2018-09-03T05:47:56.105Z,102097.33
2018-09-03T05:51:00.432Z,102093.27
2018-09-03T05:54:04.736Z,102093.52
2018-09-03T05:57:08.988Z,102095.91
2018-09-03T06:00:13.221Z,102092.70
2018-09-03T06:03:17.518Z,102099.30
2018-09-03T06:06:21.846Z,102096.80
2018-09-03T06:09:26.107Z,102099.06
2018-09-03T06:12:30.349Z,102093.45
2018-09-03T06:15:34.592Z,102096.50
2018-09-03T06:18:38.833Z,102095.41
2018-09-03T06:21:43.129Z,102093.75
2018-09-03T06:24:47.356Z,102094.34
2018-09-03T06:27:51.598Z,102097.25
2018-09-03T06:30:55.846Z,102097.85
2018-09-03T06:34:00.036Z,102104.13
2018-09-03T06:37:04.327Z,102101.17
2018-09-03T06:40:08.630Z,102102.17
2018-09-03T06:43:12.913Z,102104.68
2018-09-03T06:46:17.141Z,102098.92
2018-09-03T06:49:21.376Z,102104.11
2018-09-03T06:52:25.588Z,102097.02
2018-09-03T06:55:29.802Z,102082.86
2018-09-03T06:58:34.050Z,102087.98
2018-09-03T07:01:38.922Z,102084.77
2018-09-03T07:04:43.153Z,102081.58
2018-09-03T07:07:47.479Z,102086.20
2018-09-03T07:10:51.816Z,102079.62
2018-09-03T07:14:21.945Z,102074.17
2018-09-03T07:17:26.237Z,102068.98
2018-09-03T07:20:30.512Z,102075.33
2018-09-03T07:23:34.921Z,102065.72
2018-09-03T07:26:39.345Z,102066.28
2018-09-03T07:29:44.042Z,102071.14
2018-09-03T07:32:48.254Z,102066.16
2018-09-03T07:35:52.501Z,102064.59
2018-09-03T07:38:56.728Z,102057.91
2018-09-03T07:42:01.009Z,102070.16
2018-09-03T07:45:05.290Z,102066.11
2018-09-03T07:48:09.632Z,102057.16
2018-09-03T07:51:13.925Z,102053.92
2018-09-03T07:54:18.196Z,102050.34
2018-09-03T07:57:22.468Z,102047.50
2018-09-03T08:14:17.582Z,102041.66
2018-09-03T08:17:21.808Z,102046.09
2018-09-03T08:20:26.068Z,102051.15
2018-09-03T08:23:30.319Z,102053.93
2018-09-03T08:26:34.544Z,102056.33
2018-09-03T08:29:38.827Z,102061.23
2018-09-03T08:32:43.048Z,102058.75
2018-09-03T08:35:47.297Z,102049.08
2018-09-03T08:38:51.541Z,102052.65
2018-09-03T08:41:55.808Z,102062.89
2018-09-03T08:46:40.021Z,102056.86
2018-09-03T08:49:44.341Z,102050.33
2018-09-03T08:52:48.513Z,102049.56
2018-09-03T08:55:52.746Z,102054.29
2018-09-03T08:58:57.153Z,102054.82
2018-09-03T09:02:01.582Z,102050.56
2018-09-03T09:05:05.893Z,102056.89
2018-09-03T09:13:41.478Z,102046.23
2018-09-03T09:16:45.710Z,102047.17
2018-09-03T09:19:50.002Z,102048.68
2018-09-03T09:22:54.257Z,102047.86
2018-09-03T09:25:58.540Z,102045.35
2018-09-03T09:29:02.804Z,102043.72
2018-09-03T09:32:07.206Z,102029.91
2018-09-03T09:35:11.450Z,102036.02
2018-09-03T09:38:15.729Z,102031.59
2018-09-03T09:41:20.060Z,102030.47
2018-09-03T09:44:24.924Z,102027.92
2018-09-03T09:47:29.133Z,102025.41
2018-09-03T09:50:33.372Z,102023.77
2018-09-03T09:53:37.681Z,102019.02
2018-09-03T09:56:41.901Z,102019.27
2018-09-03T09:59:46.178Z,102017.27
2018-09-03T10:02:50.421Z,102022.57
2018-09-03T10:05:54.649Z,102018.38
2018-09-03T10:08:58.994Z,102012.91
2018-09-03T10:12:03.220Z,102013.14
2018-09-03T10:15:07.647Z,102023.31
2018-09-03T10:18:11.895Z,102023.31
2018-09-03T10:21:16.227Z,102024.11
2018-09-03T10:24:20.453Z,102019.38
2018-09-03T10:27:24.713Z,102017.64
2018-09-03T10:30:28.994Z,102021.50
2018-09-03T10:33:33.250Z,102014.28
2018-09-03T10:36:37.529Z,102009.27
2018-09-03T10:39:41.728Z,102004.80
2018-09-03T10:42:45.950Z,102002.04
2018-09-03T10:45:50.233Z,101989.16
2018-09-03T10:48:54.476Z,101989.00
2018-09-03T10:51:58.835Z,101984.36
2018-09-03T10:55:03.102Z,101982.75
2018-09-03T10:58:07.356Z,101985.81
2018-09-03T11:01:11.637Z,101978.75
2018-09-03T11:04:15.849Z,101969.88
2018-09-03T11:07:20.132Z,101967.69
2018-09-03T11:10:24.380Z,101961.34
2018-09-03T11:13:28.642Z,101962.45
2018-09-03T11:16:32.929Z,101961.39
2018-09-03T11:19:43.498Z,101967.27
2018-09-03T11:22:47.729Z,101971.47
2018-09-03T11:25:52.032Z,101963.77
2018-09-03T11:28:56.274Z,101957.20
2018-09-03T11:32:00.517Z,101955.88
2018-09-03T11:35:04.909Z,101950.70
2018-09-03T11:39:00.301Z,101946.62
2018-09-03T11:42:04.512Z,101947.53
2018-09-03T11:45:08.825Z,101940.95
2018-09-03T11:48:13.056Z,101939.40
2018-09-03T11:51:17.330Z,101940.03
2018-09-03T11:54:21.746Z,101933.22
2018-09-03T11:57:25.989Z,101933.08
2018-09-03T12:00:31.572Z,101937.31
2018-09-03T12:03:35.788Z,101937.39
2018-09-03T12:06:40.042Z,101938.87
2018-09-03T12:09:44.248Z,101932.05
2018-09-03T12:12:48.495Z,101923.25
2018-09-03T12:16:23.959Z,101937.11
2018-09-03T12:19:30.797Z,101923.03
2018-09-03T12:22:35.081Z,101926.92
2018-09-03T12:25:39.299Z,101916.42
2018-09-03T12:28:43.532Z,101915.31
2018-09-03T12:31:47.813Z,101923.66
2018-09-03T12:34:52.061Z,101915.08
2018-09-03T12:37:56.281Z,101914.54
2018-09-03T12:41:00.562Z,101918.13
2018-09-03T12:44:04.902Z,101909.28
2018-09-03T12:47:09.138Z,101905.66
2018-09-03T12:50:13.450Z,101917.58
2018-09-03T12:53:17.686Z,101910.09
2018-09-03T12:56:21.961Z,101902.32
2018-09-03T12:59:26.204Z,101890.66
2018-09-03T13:02:30.441Z,101898.97
2018-09-03T13:05:34.704Z,101892.88
2018-09-03T13:08:38.977Z,101885.66
2018-09-03T13:11:43.220Z,101885.09
2018-09-03T13:14:47.445Z,101882.04
2018-09-03T13:17:51.653Z,101885.09
2018-09-03T13:20:55.857Z,101882.30
2018-09-03T13:24:00.129Z,101880.92
2018-09-03T13:27:04.336Z,101881.45
2018-09-03T13:30:09.476Z,101882.59
2018-09-03T13:33:13.678Z,101882.85
2018-09-03T13:36:17.933Z,101874.53
2018-09-03T13:39:22.101Z,101876.17
2018-09-03T13:42:26.395Z,101873.67
2018-09-03T13:45:30.577Z,101874.19
2018-09-03T13:48:34.996Z,101869.20
2018-09-03T13:51:39.258Z,101866.96
2018-09-03T13:54:43.484Z,101867.78
2018-09-03T13:57:47.696Z,101866.11
2018-09-03T14:00:51.942Z,101875.53
2018-09-03T14:03:56.135Z,101873.86
2018-09-03T14:07:00.371Z,101875.55
2018-09-03T14:10:04.657Z,101873.89
2018-09-03T14:13:08.864Z,101870.55
2018-09-03T14:16:13.229Z,101861.14
2018-09-03T14:19:17.521Z,101864.76
2018-09-03T14:22:21.751Z,101856.95
2018-09-03T14:25:25.964Z,101859.73
2018-09-03T14:28:30.258Z,101851.11
2018-09-03T14:31:34.405Z,101841.13
2018-09-03T14:34:38.644Z,101836.38
2018-09-03T14:37:42.886Z,101833.66
2018-09-03T14:40:47.120Z,101833.13
2018-09-03T14:43:51.369Z,101831.98
2018-09-03T14:46:55.601Z,101832.55
2018-09-03T14:49:59.858Z,101831.40
2018-09-03T14:53:04.113Z,101834.70
2018-09-03T14:56:08.430Z,101836.93
2018-09-03T14:59:12.625Z,101836.08
2018-09-03T15:02:16.894Z,101837.16
2018-09-03T15:05:21.115Z,101837.39
2018-09-03T15:08:25.408Z,101832.39
2018-09-03T15:11:29.577Z,101836.27
2018-09-03T15:14:33.889Z,101834.05
2018-09-03T15:17:38.102Z,101834.56
2018-09-03T15:20:42.390Z,101831.84
2018-09-03T15:23:46.580Z,101838.21
2018-09-03T15:26:50.857Z,101833.50
2018-09-03T15:29:55.096Z,101839.28
2018-09-03T15:32:59.341Z,101835.39
2018-09-03T15:36:03.670Z,101841.69
2018-09-03T15:39:11.193Z,101829.16
2018-09-03T15:42:15.396Z,101837.50
2018-09-03T15:45:19.816Z,101824.67
2018-09-03T15:48:24.300Z,101824.06
2018-09-03T15:51:28.886Z,101820.08
2018-09-03T15:54:33.436Z,101820.85
2018-09-03T15:57:37.874Z,101820.19
2018-09-03T16:00:42.979Z,101821.83
2018-09-03T16:03:47.454Z,101820.06
2018-09-03T16:06:52.070Z,101819.64
2018-09-03T16:09:57.185Z,101818.07
2018-09-03T16:13:02.648Z,101811.86
2018-09-03T16:16:07.239Z,101813.77
2018-09-03T16:19:13.955Z,101809.38
2018-09-03T16:22:19.225Z,101815.97
2018-09-03T16:25:27.019Z,101807.93
2018-09-03T16:28:32.158Z,101800.37
2018-09-03T16:31:36.682Z,101796.98
2018-09-03T16:34:41.338Z,101809.63
2018-09-03T16:37:48.896Z,101808.91
2018-09-03T16:40:53.757Z,101810.92
2018-09-03T16:44:00.420Z,101810.46
2018-09-03T16:47:04.641Z,101811.31
2018-09-03T16:50:09.398Z,101813.86
2018-09-03T16:53:16.345Z,101813.05
2018-09-03T16:56:21.774Z,101808.09
2018-09-03T16:59:26.347Z,101810.61
2018-09-03T17:02:31.781Z,101811.45
2018-09-03T17:05:36.289Z,101809.25
2018-09-03T17:08:40.780Z,101811.41
2018-09-03T17:11:46.853Z,101805.33
2018-09-03T17:14:51.500Z,101805.61
2018-09-03T17:17:57.533Z,101806.98
2018-09-03T17:21:02.284Z,101807.53
2018-09-03T17:24:06.567Z,101808.08
2018-09-03T17:27:10.799Z,101802.22
2018-09-03T17:30:15.069Z,101809.44
2018-09-03T17:33:19.284Z,101816.27
2018-09-03T17:36:23.572Z,101815.70
2018-09-03T17:39:28.916Z,101814.03
2018-09-03T17:42:33.145Z,101820.63
2018-09-03T17:45:37.418Z,101812.04
2018-09-03T17:48:41.677Z,101820.55
2018-09-03T17:51:45.974Z,101817.75
2018-09-03T17:54:50.249Z,101817.19
2018-09-03T17:57:54.473Z,101817.99
2018-09-03T18:00:58.710Z,101814.08
2018-09-03T18:04:02.945Z,101814.89
2018-09-03T18:07:07.219Z,101815.96
2018-09-03T18:10:11.465Z,101816.43
2018-09-03T18:13:15.719Z,101818.03
2018-09-03T18:16:19.995Z,101820.75
2018-09-03T18:19:24.188Z,101826.50
2018-09-03T18:22:28.425Z,101825.08
2018-09-03T18:25:32.685Z,101827.24
2018-09-03T18:28:36.880Z,101821.36
2018-09-03T18:31:41.137Z,101823.81
2018-09-03T18:34:45.368Z,101830.40
2018-09-03T18:37:49.581Z,101828.16
2018-09-03T18:40:53.807Z,101825.33
2018-09-03T18:43:58.001Z,101824.74
2018-09-03T18:47:02.282Z,101824.16
2018-09-03T18:50:08.576Z,101830.73
2018-09-03T18:53:12.934Z,101825.45
2018-09-03T18:56:17.169Z,101822.09
2018-09-03T18:59:21.424Z,101814.55
2018-09-03T19:02:25.729Z,101815.34
2018-09-03T19:05:29.957Z,101821.62
2018-09-03T19:08:34.308Z,101821.56
2018-09-03T19:11:38.718Z,101830.88
2018-09-03T19:14:42.968Z,101831.41
2018-09-03T19:17:47.236Z,101836.61
2018-09-03T19:20:51.513Z,101837.12
2018-09-03T19:23:55.785Z,101836.52
2018-09-03T19:27:00.060Z,101835.34
2018-09-03T19:30:04.356Z,101833.36
2018-09-03T19:33:08.589Z,101837.05
2018-09-03T19:36:12.900Z,101840.00
2018-09-03T19:39:18.932Z,101835.31
2018-09-03T19:42:23.249Z,101830.52
2018-09-03T19:45:27.486Z,101830.78
2018-09-03T19:48:31.780Z,101838.95
2018-09-03T19:51:35.992Z,101835.54
2018-09-03T19:54:47.506Z,101837.91
2018-09-03T19:57:52.610Z,101833.48
2018-09-03T20:00:58.478Z,101833.41
2018-09-03T20:04:04.223Z,101826.70
2018-09-03T20:07:10.424Z,101840.98
2018-09-03T20:10:14.677Z,101839.33
2018-09-03T20:13:20.245Z,101835.92
2018-09-03T20:16:26.371Z,101843.72
2018-09-03T20:19:31.184Z,101837.36
2018-09-03T20:22:36.343Z,101842.53
2018-09-03T20:25:42.258Z,101842.26
2018-09-03T20:28:48.061Z,101851.84
2018-09-03T20:31:52.329Z,101847.02
2018-09-03T20:34:56.558Z,101853.00
2018-09-03T20:38:00.793Z,101850.53
2018-09-03T20:41:05.081Z,101850.84
2018-09-03T20:44:09.336Z,101856.03
2018-09-03T20:47:13.589Z,101852.05
2018-09-03T20:50:17.823Z,101848.92
2018-09-03T20:53:22.037Z,101843.14
2018-09-03T20:56:26.492Z,101842.20
2018-09-03T20:59:30.774Z,101843.05
2018-09-03T21:02:35.014Z,101848.78
2018-09-03T21:05:39.281Z,101842.00
2018-09-03T21:08:43.492Z,101844.44
2018-09-03T21:11:47.699Z,101843.78
2018-09-03T21:14:51.944Z,101845.41
2018-09-03T21:17:56.196Z,101849.48
2018-09-03T21:21:00.492Z,101843.63
2018-09-03T21:24:04.813Z,101849.38
2018-09-03T21:27:08.982Z,101847.34
2018-09-03T21:30:13.209Z,101851.48
2018-09-03T21:33:17.420Z,101846.84
2018-09-03T21:36:21.696Z,101849.29
2018-09-03T21:39:25.916Z,101846.75
2018-09-03T21:42:30.308Z,101844.53
2018-09-03T21:45:34.584Z,101839.59
2018-09-03T21:48:38.899Z,101843.87
2018-09-03T21:51:43.134Z,101835.52
2018-09-03T21:54:47.397Z,101847.90
2018-09-03T21:57:51.665Z,101837.84
2018-09-03T22:00:55.946Z,101840.84
2018-09-03T22:04:00.184Z,101839.36
2018-09-03T22:07:04.436Z,101837.29
2018-09-03T22:10:08.712Z,101835.28
2018-09-03T22:13:12.959Z,101836.91
2018-09-03T22:16:17.193Z,101843.54
2018-09-03T22:19:21.437Z,101841.53
2018-09-03T22:22:25.653Z,101844.00
2018-09-03T22:25:29.892Z,101843.12
2018-09-03T22:28:34.564Z,101847.73
2018-09-03T22:31:38.833Z,101848.52
2018-09-03T22:34:43.122Z,101847.67
2018-09-03T22:37:47.340Z,101842.41
2018-09-03T22:40:51.710Z,101845.12
2018-09-03T22:43:55.941Z,101844.28
2018-09-03T22:47:00.246Z,101850.63
2018-09-03T22:50:04.481Z,101849.29
2018-09-03T22:53:08.718Z,101853.06
2018-09-03T22:56:12.973Z,101851.41
2018-09-03T22:59:17.251Z,101849.19
2018-09-03T23:02:21.461Z,101854.36
2018-09-03T23:05:25.730Z,101858.66
2018-09-03T23:08:29.945Z,101857.00
2018-09-03T23:11:34.201Z,101853.97
2018-09-03T23:14:38.416Z,101852.00
2018-09-03T23:17:42.754Z,101844.10
2018-09-03T23:20:46.987Z,101843.50
2018-09-03T23:23:51.217Z,101837.94
2018-09-03T23:26:55.548Z,101835.14
2018-09-03T23:29:59.882Z,101830.14
2018-09-03T23:33:04.130Z,101826.75
2018-09-03T23:36:08.401Z,101817.02
2018-09-03T23:39:12.645Z,101819.66
2018-09-03T23:42:16.938Z,101813.56
2018-09-03T23:45:21.179Z,101804.69
2018-09-03T23:48:25.449Z,101801.58
2018-09-03T23:51:29.688Z,101806.47
2018-09-03T23:54:33.936Z,101801.51
2018-09-03T23:57:38.152Z,101802.59
